sensor_id;sensor_type;location;lat;lon;timestamp;pressure;altitude;pressure_sealevel;temperature;humidity
19210;BME280;9738;51.654;14.238;2023-04-04T00:00:11;101807.25;;;1.90;90.94
19210;BME280;9738;51.654;14.238;2023-04-04T00:02:37;101812.56;;;1.89;90.79
19210;BME280;9738;51.654;14.238;2023-04-04T00:05:06;101809.94;;;1.89;90.55
19210;BME280;9738;51.654;14.238;2023-04-04T00:07:33;101806.53;;;1.87;90.67
19210;BME280;9738;51.654;14.238;2023-04-04T00:09:59;101807.44;;;1.86;90.88
19210;BME280;9738;51.654;14.238;2023-04-04T00:12:25;101808.38;;;1.85;90.31
19210;BME280;9738;51.654;14.238;2023-04-04T00:14:51;101813.63;;;1.85;90.36
19210;BME280;9738;51.654;14.238;2023-04-04T00:17:17;101803.22;;;1.82;90.20
19210;BME280;9738;51.654;14.238;2023-04-04T00:19:43;101803.28;;;1.80;91.04
19210;BME280;9738;51.654;14.238;2023-04-04T00:22:09;101804.31;;;1.76;90.70
19210;BME280;9738;51.654;14.238;2023-04-04T00:24:35;101803.38;;;1.77;90.66
19210;BME280;9738;51.654;14.238;2023-04-04T00:27:02;101805.31;;;1.74;89.53
19210;BME280;9738;51.654;14.238;2023-04-04T00:29:28;101806.25;;;1.71;89.25
19210;BME280;9738;51.654;14.238;2023-04-04T00:31:54;101810.63;;;1.72;89.22
19210;BME280;9738;51.654;14.238;2023-04-04T00:34:20;101807.09;;;1.73;89.06
19210;BME280;9738;51.654;14.238;2023-04-04T00:36:46;101807.13;;;1.72;89.27
19210;BME280;9738;51.654;14.238;2023-04-04T00:39:12;101802.84;;;1.69;88.50
19210;BME280;9738;51.654;14.238;2023-04-04T00:41:38;101795.97;;;1.65;87.18
19210;BME280;9738;51.654;14.238;2023-04-04T00:44:05;101806.63;;;1.62;87.13
19210;BME280;9738;51.654;14.238;2023-04-04T00:46:31;101800.22;;;1.69;86.34
19210;BME280;9738;51.654;14.238;2023-04-04T00:48:57;101800.28;;;1.68;85.43
19210;BME280;9738;51.654;14.238;2023-04-04T00:51:24;101802.13;;;1.66;84.78
19210;BME280;9738;51.654;14.238;2023-04-04T00:53:50;101803.16;;;1.61;84.86
19210;BME280;9738;51.654;14.238;2023-04-04T00:56:16;101789.13;;;1.61;84.87
19210;BME280;9738;51.654;14.238;2023-04-04T00:58:43;101795.31;;;1.60;84.45
19210;BME280;9738;51.654;14.238;2023-04-04T01:01:09;101791.75;;;1.61;84.82
19210;BME280;9738;51.654;14.238;2023-04-04T01:03:38;101797.09;;;1.59;84.59
19210;BME280;9738;51.654;14.238;2023-04-04T01:06:06;101791.84;;;1.59;84.50
19210;BME280;9738;51.654;14.238;2023-04-04T01:08:35;101792.69;;;1.60;84.64
19210;BME280;9738;51.654;14.238;2023-04-04T01:11:01;101788.28;;;1.60;85.19
19210;BME280;9738;51.654;14.238;2023-04-04T01:13:28;101795.34;;;1.58;84.45
19210;BME280;9738;51.654;14.238;2023-04-04T01:15:54;101788.38;;;1.57;85.03
19210;BME280;9738;51.654;14.238;2023-04-04T01:18:21;101784.97;;;1.55;85.40
19210;BME280;9738;51.654;14.238;2023-04-04T01:21:00;101786.69;;;1.56;85.54
19210;BME280;9738;51.654;14.238;2023-04-04T01:24:00;101785.06;;;1.52;86.03
19210;BME280;9738;51.654;14.238;2023-04-04T01:26:27;101784.28;;;1.50;86.24
19210;BME280;9738;51.654;14.238;2023-04-04T01:28:54;101783.56;;;1.47;86.81
19210;BME280;9738;51.654;14.238;2023-04-04T01:31:34;101777.53;;;1.43;86.90
19210;BME280;9738;51.654;14.238;2023-04-04T01:34:10;101782.03;;;1.41;87.48
19210;BME280;9738;51.654;14.238;2023-04-04T01:36:46;101784.88;;;1.35;88.10
19210;BME280;9738;51.654;14.238;2023-04-04T01:39:21;101785.91;;;1.31;88.46
19210;BME280;9738;51.654;14.238;2023-04-04T01:41:47;101777.22;;;1.29;89.04
19210;BME280;9738;51.654;14.238;2023-04-04T01:44:16;101777.53;;;1.21;89.46
19210;BME280;9738;51.654;14.238;2023-04-04T01:46:42;101778.63;;;1.16;89.88
19210;BME280;9738;51.654;14.238;2023-04-04T01:49:08;101778.84;;;1.10;90.00
19210;BME280;9738;51.654;14.238;2023-04-04T01:51:34;101776.31;;;1.06;90.23
19210;BME280;9738;51.654;14.238;2023-04-04T01:54:00;101774.13;;;0.96;90.81
19210;BME280;9738;51.654;14.238;2023-04-04T01:56:26;101774.28;;;0.91;91.08
19210;BME280;9738;51.654;14.238;2023-04-04T01:58:52;101774.44;;;0.87;91.70
19210;BME280;9738;51.654;14.238;2023-04-04T02:01:18;101770.38;;;0.78;92.21
19210;BME280;9738;51.654;14.238;2023-04-04T02:03:44;101770.59;;;0.72;93.03
19210;BME280;9738;51.654;14.238;2023-04-04T02:06:10;101768.34;;;0.61;93.56
19210;BME280;9738;51.654;14.238;2023-04-04T02:08:36;101762.38;;;0.58;94.27
19210;BME280;9738;51.654;14.238;2023-04-04T02:11:03;101765.25;;;0.50;94.81
19210;BME280;9738;51.654;14.238;2023-04-04T02:13:29;101768.94;;;0.44;94.97
19210;BME280;9738;51.654;14.238;2023-04-04T02:15:55;101763.22;;;0.33;95.57
19210;BME280;9738;51.654;14.238;2023-04-04T02:18:21;101762.63;;;0.25;96.23
19210;BME280;9738;51.654;14.238;2023-04-04T02:20:54;101761.09;;;0.18;96.59
19210;BME280;9738;51.654;14.238;2023-04-04T02:23:21;101756.13;;;0.10;97.36
19210;BME280;9738;51.654;14.238;2023-04-04T02:25:51;101759.03;;;0.03;97.74
19210;BME280;9738;51.654;14.238;2023-04-04T02:28:17;101756.69;;;-0.07;98.75
19210;BME280;9738;51.654;14.238;2023-04-04T02:30:43;101759.63;;;-0.16;99.80
19210;BME280;9738;51.654;14.238;2023-04-04T02:33:10;101754.56;;;-0.22;100.00
19210;BME280;9738;51.654;14.238;2023-04-04T02:35:36;101761.00;;;-0.31;100.00
19210;BME280;9738;51.654;14.238;2023-04-04T02:38:02;101756.88;;;-0.39;100.00
19210;BME280;9738;51.654;14.238;2023-04-04T02:40:28;101755.38;;;-0.46;100.00
19210;BME280;9738;51.654;14.238;2023-04-04T02:42:54;101753.78;;;-0.52;100.00
19210;BME280;9738;51.654;14.238;2023-04-04T02:45:20;101751.34;;;-0.58;100.00
19210;BME280;9738;51.654;14.238;2023-04-04T02:47:49;101755.94;;;-0.65;100.00
19210;BME280;9738;51.654;14.238;2023-04-04T02:50:16;101752.69;;;-0.73;100.00
19210;BME280;9738;51.654;14.238;2023-04-04T02:52:42;101754.59;;;-0.78;100.00
19210;BME280;9738;51.654;14.238;2023-04-04T02:55:08;101756.50;;;-0.83;100.00
19210;BME280;9738;51.654;14.238;2023-04-04T02:57:34;101752.31;;;-0.89;100.00
19210;BME280;9738;51.654;14.238;2023-04-04T03:00:00;101750.75;;;-0.94;100.00
19210;BME280;9738;51.654;14.238;2023-04-04T03:02:29;101750.00;;;-0.99;100.00
19210;BME280;9738;51.654;14.238;2023-04-04T03:04:55;101744.84;;;-1.02;100.00
19210;BME280;9738;51.654;14.238;2023-04-04T03:07:21;101745.00;;;-1.09;100.00
19210;BME280;9738;51.654;14.238;2023-04-04T03:09:51;101752.88;;;-1.09;100.00
19210;BME280;9738;51.654;14.238;2023-04-04T03:12:19;101746.09;;;-1.16;100.00
19210;BME280;9738;51.654;14.238;2023-04-04T03:14:46;101743.59;;;-1.19;100.00
19210;BME280;9738;51.654;14.238;2023-04-04T03:17:12;101742.84;;;-1.24;100.00
19210;BME280;9738;51.654;14.238;2023-04-04T03:19:39;101738.56;;;-1.26;100.00
19210;BME280;9738;51.654;14.238;2023-04-04T03:22:05;101743.94;;;-1.31;100.00
19210;BME280;9738;51.654;14.238;2023-04-04T03:24:31;101742.28;;;-1.35;100.00
19210;BME280;9738;51.654;14.238;2023-04-04T03:26:58;101738.94;;;-1.40;100.00
19210;BME280;9738;51.654;14.238;2023-04-04T03:29:25;101742.56;;;-1.44;100.00
19210;BME280;9738;51.654;14.238;2023-04-04T03:31:52;101740.84;;;-1.45;100.00
19210;BME280;9738;51.654;14.238;2023-04-04T03:34:17;101743.59;;;-1.50;100.00
19210;BME280;9738;51.654;14.238;2023-04-04T03:36:44;101740.19;;;-1.53;100.00
19210;BME280;9738;51.654;14.238;2023-04-04T03:39:11;101741.19;;;-1.57;100.00
19210;BME280;9738;51.654;14.238;2023-04-04T03:41:37;101746.50;;;-1.60;100.00
19210;BME280;9738;51.654;14.238;2023-04-04T03:44:04;101746.59;;;-1.64;100.00
19210;BME280;9738;51.654;14.238;2023-04-04T03:46:30;101744.94;;;-1.68;100.00
19210;BME280;9738;51.654;14.238;2023-04-04T03:48:56;101745.13;;;-1.74;100.00
19210;BME280;9738;51.654;14.238;2023-04-04T03:51:27;101740.88;;;-1.78;100.00
19210;BME280;9738;51.654;14.238;2023-04-04T03:53:53;101748.78;;;-1.81;100.00
19210;BME280;9738;51.654;14.238;2023-04-04T03:56:19;101744.50;;;-1.83;100.00
19210;BME280;9738;51.654;14.238;2023-04-04T03:58:45;101746.34;;;-1.87;100.00
19210;BME280;9738;51.654;14.238;2023-04-04T04:01:12;101742.97;;;-1.91;100.00
19210;BME280;9738;51.654;14.238;2023-04-04T04:03:37;101741.31;;;-1.95;100.00
19210;BME280;9738;51.654;14.238;2023-04-04T04:06:03;101743.22;;;-2.01;100.00
19210;BME280;9738;51.654;14.238;2023-04-04T04:08:30;101740.66;;;-2.04;100.00
19210;BME280;9738;51.654;14.238;2023-04-04T04:11:02;101746.00;;;-2.07;100.00
19210;BME280;9738;51.654;14.238;2023-04-04T04:13:28;101741.72;;;-2.10;100.00
19210;BME280;9738;51.654;14.238;2023-04-04T04:15:55;101743.53;;;-2.13;100.00
19210;BME280;9738;51.654;14.238;2023-04-04T04:18:21;101741.88;;;-2.16;100.00
19210;BME280;9738;51.654;14.238;2023-04-04T04:20:47;101743.63;;;-2.18;100.00
19210;BME280;9738;51.654;14.238;2023-04-04T04:23:13;101748.16;;;-2.25;100.00
19210;BME280;9738;51.654;14.238;2023-04-04T04:25:39;101746.50;;;-2.27;100.00
19210;BME280;9738;51.654;14.238;2023-04-04T04:28:05;101744.78;;;-2.28;100.00
19210;BME280;9738;51.654;14.238;2023-04-04T04:30:31;101747.41;;;-2.30;100.00
19210;BME280;9738;51.654;14.238;2023-04-04T04:32:57;101751.03;;;-2.34;100.00
19210;BME280;9738;51.654;14.238;2023-04-04T04:35:23;101749.31;;;-2.36;100.00
19210;BME280;9738;51.654;14.238;2023-04-04T04:37:49;101749.31;;;-2.35;100.00
19210;BME280;9738;51.654;14.238;2023-04-04T04:40:15;101748.47;;;-2.37;100.00
19210;BME280;9738;51.654;14.238;2023-04-04T04:42:45;101751.16;;;-2.40;100.00
19210;BME280;9738;51.654;14.238;2023-04-04T04:45:11;101748.66;;;-2.45;100.00
19210;BME280;9738;51.654;14.238;2023-04-04T04:47:37;101747.00;;;-2.47;100.00
19210;BME280;9738;51.654;14.238;2023-04-04T04:50:03;101757.50;;;-2.50;100.00
19210;BME280;9738;51.654;14.238;2023-04-04T04:52:30;101757.59;;;-2.53;100.00
19210;BME280;9738;51.654;14.238;2023-04-04T04:54:56;101754.06;;;-2.52;100.00
19210;BME280;9738;51.654;14.238;2023-04-04T04:57:22;101754.13;;;-2.54;100.00
19210;BME280;9738;51.654;14.238;2023-04-04T04:59:48;101754.16;;;-2.57;100.00
19210;BME280;9738;51.654;14.238;2023-04-04T05:02:14;101755.03;;;-2.56;100.00
19210;BME280;9738;51.654;14.238;2023-04-04T05:04:41;101756.75;;;-2.55;100.00
19210;BME280;9738;51.654;14.238;2023-04-04T05:07:10;101764.53;;;-2.52;100.00
19210;BME280;9738;51.654;14.238;2023-04-04T05:09:37;101767.09;;;-2.51;100.00
19210;BME280;9738;51.654;14.238;2023-04-04T05:12:03;101764.44;;;-2.49;100.00
19210;BME280;9738;51.654;14.238;2023-04-04T05:14:29;101764.34;;;-2.45;100.00
19210;BME280;9738;51.654;14.238;2023-04-04T05:16:55;101768.63;;;-2.40;100.00
19210;BME280;9738;51.654;14.238;2023-04-04T05:19:21;101770.09;;;-2.30;100.00
19210;BME280;9738;51.654;14.238;2023-04-04T05:21:48;101780.41;;;-2.23;100.00
19210;BME280;9738;51.654;14.238;2023-04-04T05:24:13;101784.63;;;-2.17;100.00
19210;BME280;9738;51.654;14.238;2023-04-04T05:26:41;101778.38;;;-2.11;100.00
19210;BME280;9738;51.654;14.238;2023-04-04T05:29:08;101781.75;;;-2.06;100.00
19210;BME280;9738;51.654;14.238;2023-04-04T05:31:33;101779.56;;;-1.89;100.00
19210;BME280;9738;51.654;14.238;2023-04-04T05:33:59;101782.53;;;-1.69;100.00
19210;BME280;9738;51.654;14.238;2023-04-04T05:36:33;101785.41;;;-1.45;100.00
19210;BME280;9738;51.654;14.238;2023-04-04T05:39:00;101781.59;;;-1.35;100.00
19210;BME280;9738;51.654;14.238;2023-04-04T05:41:25;101792.94;;;-1.34;100.00
19210;BME280;9738;51.654;14.238;2023-04-04T05:43:52;101793.81;;;-1.34;100.00
19210;BME280;9738;51.654;14.238;2023-04-04T05:46:18;101800.53;;;-1.24;100.00
19210;BME280;9738;51.654;14.238;2023-04-04T05:48:43;101798.19;;;-1.03;100.00
19210;BME280;9738;51.654;14.238;2023-04-04T05:51:10;101796.50;;;-0.76;100.00
19210;BME280;9738;51.654;14.238;2023-04-04T05:53:35;101788.50;;;-0.42;100.00
19210;BME280;9738;51.654;14.238;2023-04-04T05:56:01;101786.53;;;-0.09;100.00
19210;BME280;9738;51.654;14.238;2023-04-04T05:58:28;101795.06;;;0.24;100.00
19210;BME280;9738;51.654;14.238;2023-04-04T06:00:54;101798.47;;;0.52;100.00
19210;BME280;9738;51.654;14.238;2023-04-04T06:03:20;101805.59;;;0.74;100.00
19210;BME280;9738;51.654;14.238;2023-04-04T06:05:52;101802.22;;;0.94;100.00
19210;BME280;9738;51.654;14.238;2023-04-04T06:08:18;101803.22;;;1.15;100.00
19210;BME280;9738;51.654;14.238;2023-04-04T06:10:44;101791.06;;;1.34;100.00
19210;BME280;9738;51.654;14.238;2023-04-04T06:13:11;101802.41;;;1.36;100.00
19210;BME280;9738;51.654;14.238;2023-04-04T06:15:36;101796.56;;;1.28;98.63
19210;BME280;9738;51.654;14.238;2023-04-04T06:18:02;101795.53;;;1.32;98.89
19210;BME280;9738;51.654;14.238;2023-04-04T06:20:29;101792.81;;;1.33;96.03
19210;BME280;9738;51.654;14.238;2023-04-04T06:22:54;101789.47;;;1.52;96.61
19210;BME280;9738;51.654;14.238;2023-04-04T06:25:20;101787.13;;;1.68;93.91
19210;BME280;9738;51.654;14.238;2023-04-04T06:27:46;101790.97;;;1.81;92.46
19210;BME280;9738;51.654;14.238;2023-04-04T06:30:12;101791.00;;;2.01;92.12
19210;BME280;9738;51.654;14.238;2023-04-04T06:32:41;101788.59;;;2.17;91.23
19210;BME280;9738;51.654;14.238;2023-04-04T06:35:08;101789.97;;;2.26;87.74
19210;BME280;9738;51.654;14.238;2023-04-04T06:37:34;101788.19;;;2.26;85.75
19210;BME280;9738;51.654;14.238;2023-04-04T06:39:59;101790.97;;;2.23;85.31
19210;BME280;9738;51.654;14.238;2023-04-04T06:42:26;101789.47;;;2.17;85.07
19210;BME280;9738;51.654;14.238;2023-04-04T06:44:52;101785.09;;;2.16;85.58
19210;BME280;9738;51.654;14.238;2023-04-04T06:47:18;101781.06;;;2.08;84.66
19210;BME280;9738;51.654;14.238;2023-04-04T06:49:45;101778.34;;;2.09;85.15
19210;BME280;9738;51.654;14.238;2023-04-04T06:52:11;101794.41;;;2.03;85.04
19210;BME280;9738;51.654;14.238;2023-04-04T06:54:36;101783.88;;;2.03;85.22
19210;BME280;9738;51.654;14.238;2023-04-04T06:57:03;101788.63;;;1.95;85.42
19210;BME280;9738;51.654;14.238;2023-04-04T06:59:29;101787.34;;;1.83;85.22
19210;BME280;9738;51.654;14.238;2023-04-04T07:01:56;101785.25;;;1.70;85.28
19210;BME280;9738;51.654;14.238;2023-04-04T07:04:22;101783.97;;;1.58;84.71
19210;BME280;9738;51.654;14.238;2023-04-04T07:06:48;101782.19;;;1.58;84.69
19210;BME280;9738;51.654;14.238;2023-04-04T07:09:13;101789.59;;;1.71;84.38
19210;BME280;9738;51.654;14.238;2023-04-04T07:11:40;101788.50;;;1.98;83.48
19210;BME280;9738;51.654;14.238;2023-04-04T07:14:05;101785.03;;;2.18;81.47
19210;BME280;9738;51.654;14.238;2023-04-04T07:16:31;101793.34;;;2.50;81.52
19210;BME280;9738;51.654;14.238;2023-04-04T07:18:57;101786.06;;;2.75;80.38
19210;BME280;9738;51.654;14.238;2023-04-04T07:21:23;101785.38;;;2.90;76.07
19210;BME280;9738;51.654;14.238;2023-04-04T07:23:51;101788.03;;;3.09;75.39
19210;BME280;9738;51.654;14.238;2023-04-04T07:26:17;101783.06;;;3.22;74.54
19210;BME280;9738;51.654;14.238;2023-04-04T07:28:43;101784.09;;;3.37;72.31
19210;BME280;9738;51.654;14.238;2023-04-04T07:31:08;101785.75;;;3.39;71.88
19210;BME280;9738;51.654;14.238;2023-04-04T07:33:35;101774.50;;;3.72;72.50
19210;BME280;9738;51.654;14.238;2023-04-04T07:36:00;101773.38;;;4.12;68.27
19210;BME280;9738;51.654;14.238;2023-04-04T07:38:27;101770.44;;;4.36;65.97
19210;BME280;9738;51.654;14.238;2023-04-04T07:40:54;101766.19;;;4.66;65.35
19210;BME280;9738;51.654;14.238;2023-04-04T07:43:20;101770.06;;;5.09;65.09
19210;BME280;9738;51.654;14.238;2023-04-04T07:45:46;101774.06;;;5.32;61.41
19210;BME280;9738;51.654;14.238;2023-04-04T07:48:12;101767.75;;;5.51;59.73
19210;BME280;9738;51.654;14.238;2023-04-04T07:50:38;101765.50;;;5.59;59.95
19210;BME280;9738;51.654;14.238;2023-04-04T07:53:03;101764.50;;;5.30;60.36
19210;BME280;9738;51.654;14.238;2023-04-04T07:55:30;101766.88;;;5.03;60.03
19210;BME280;9738;51.654;14.238;2023-04-04T07:57:55;101761.56;;;4.54;58.04
19210;BME280;9738;51.654;14.238;2023-04-04T08:00:22;101767.25;;;4.12;59.34
19210;BME280;9738;51.654;14.238;2023-04-04T08:02:52;101766.38;;;3.76;60.91
19210;BME280;9738;51.654;14.238;2023-04-04T08:05:19;101758.25;;;3.43;62.11
19210;BME280;9738;51.654;14.238;2023-04-04T08:07:44;101757.84;;;3.52;63.83
19210;BME280;9738;51.654;14.238;2023-04-04T08:10:11;101760.78;;;3.83;65.23
19210;BME280;9738;51.654;14.238;2023-04-04T08:12:37;101753.16;;;4.11;62.44
19210;BME280;9738;51.654;14.238;2023-04-04T08:15:04;101755.50;;;4.17;61.89
19210;BME280;9738;51.654;14.238;2023-04-04T08:17:30;101763.06;;;4.07;59.94
19210;BME280;9738;51.654;14.238;2023-04-04T08:19:56;101753.63;;;3.85;58.37
19210;BME280;9738;51.654;14.238;2023-04-04T08:22:22;101757.09;;;3.68;58.36
19210;BME280;9738;51.654;14.238;2023-04-04T08:24:48;101759.81;;;3.66;58.64
19210;BME280;9738;51.654;14.238;2023-04-04T08:27:14;101743.31;;;4.15;59.34
19210;BME280;9738;51.654;14.238;2023-04-04T08:29:40;101740.34;;;4.71;54.18
19210;BME280;9738;51.654;14.238;2023-04-04T08:32:07;101740.44;;;5.34;55.64
19210;BME280;9738;51.654;14.238;2023-04-04T08:34:32;101735.22;;;5.94;53.86
19210;BME280;9738;51.654;14.238;2023-04-04T08:36:59;101732.47;;;6.26;53.03
19210;BME280;9738;51.654;14.238;2023-04-04T08:39:25;101738.28;;;6.61;52.62
19210;BME280;9738;51.654;14.238;2023-04-04T08:41:56;101734.19;;;6.98;50.30
19210;BME280;9738;51.654;14.238;2023-04-04T08:44:27;101725.41;;;7.39;49.04
19210;BME280;9738;51.654;14.238;2023-04-04T08:46:53;101730.66;;;7.26;48.13
19210;BME280;9738;51.654;14.238;2023-04-04T08:49:20;101738.75;;;6.54;47.91
19210;BME280;9738;51.654;14.238;2023-04-04T08:51:50;101739.41;;;5.99;48.30
19210;BME280;9738;51.654;14.238;2023-04-04T08:54:17;101734.50;;;6.07;49.86
19210;BME280;9738;51.654;14.238;2023-04-04T08:56:43;101730.75;;;6.11;48.02
19210;BME280;9738;51.654;14.238;2023-04-04T08:59:10;101739.22;;;6.32;48.89
19210;BME280;9738;51.654;14.238;2023-04-04T09:01:40;101730.59;;;6.42;47.04
19210;BME280;9738;51.654;14.238;2023-04-04T09:04:07;101724.16;;;6.61;47.44
19210;BME280;9738;51.654;14.238;2023-04-04T09:06:34;101719.25;;;6.69;44.88
19210;BME280;9738;51.654;14.238;2023-04-04T09:09:00;101720.56;;;6.90;45.72
19210;BME280;9738;51.654;14.238;2023-04-04T09:11:30;101709.63;;;7.09;45.22
19210;BME280;9738;51.654;14.238;2023-04-04T09:13:57;101714.63;;;7.28;43.44
19210;BME280;9738;51.654;14.238;2023-04-04T09:16:23;101702.97;;;7.43;43.55
19210;BME280;9738;51.654;14.238;2023-04-04T09:18:49;101703.44;;;7.50;43.06
19210;BME280;9738;51.654;14.238;2023-04-04T09:21:18;101705.44;;;7.73;46.19
19210;BME280;9738;51.654;14.238;2023-04-04T09:23:43;101705.34;;;7.88;43.28
19210;BME280;9738;51.654;14.238;2023-04-04T09:26:09;101704.34;;;8.16;44.25
19210;BME280;9738;51.654;14.238;2023-04-04T09:28:38;101714.28;;;8.39;43.98
19210;BME280;9738;51.654;14.238;2023-04-04T09:31:06;101705.88;;;8.58;42.24
19210;BME280;9738;51.654;14.238;2023-04-04T09:33:33;101710.41;;;8.18;43.83
19210;BME280;9738;51.654;14.238;2023-04-04T09:36:06;101706.94;;;7.50;43.60
19210;BME280;9738;51.654;14.238;2023-04-04T09:38:35;101709.50;;;7.11;43.98
19210;BME280;9738;51.654;14.238;2023-04-04T09:41:02;101713.84;;;6.70;43.20
19210;BME280;9738;51.654;14.238;2023-04-04T09:43:30;101717.03;;;6.18;43.94
19210;BME280;9738;51.654;14.238;2023-04-04T09:45:57;101722.66;;;5.98;45.45
19210;BME280;9738;51.654;14.238;2023-04-04T09:48:34;101715.28;;;5.87;46.27
19210;BME280;9738;51.654;14.238;2023-04-04T09:51:05;101722.19;;;5.90;46.82
19210;BME280;9738;51.654;14.238;2023-04-04T09:53:37;101716.41;;;5.99;45.93
19210;BME280;9738;51.654;14.238;2023-04-04T09:56:04;101711.63;;;6.34;45.38
19210;BME280;9738;51.654;14.238;2023-04-04T09:58:30;101714.28;;;6.48;47.57
19210;BME280;9738;51.654;14.238;2023-04-04T10:01:03;101708.22;;;6.61;44.94
19210;BME280;9738;51.654;14.238;2023-04-04T10:03:35;101703.25;;;7.12;47.44
19210;BME280;9738;51.654;14.238;2023-04-04T10:06:03;101695.09;;;7.69;44.38
19210;BME280;9738;51.654;14.238;2023-04-04T10:08:30;101701.63;;;7.77;40.99
19210;BME280;9738;51.654;14.238;2023-04-04T10:11:01;101700.88;;;7.48;39.70
19210;BME280;9738;51.654;14.238;2023-04-04T10:13:32;101698.88;;;7.11;41.01
19210;BME280;9738;51.654;14.238;2023-04-04T10:16:01;101700.19;;;7.32;42.58
19210;BME280;9738;51.654;14.238;2023-04-04T10:18:30;101696.41;;;7.49;38.87
19210;BME280;9738;51.654;14.238;2023-04-04T10:20:58;101702.31;;;7.13;38.82
19210;BME280;9738;51.654;14.238;2023-04-04T10:23:24;101693.59;;;6.96;38.69
19210;BME280;9738;51.654;14.238;2023-04-04T10:25:57;101702.59;;;6.22;39.76
19210;BME280;9738;51.654;14.238;2023-04-04T10:28:24;101700.63;;;6.26;41.35
19210;BME280;9738;51.654;14.238;2023-04-04T10:31:04;101695.72;;;6.77;43.35
19210;BME280;9738;51.654;14.238;2023-04-04T10:33:40;101691.16;;;7.35;42.54
19210;BME280;9738;51.654;14.238;2023-04-04T10:36:10;101690.47;;;7.45;40.55
19210;BME280;9738;51.654;14.238;2023-04-04T10:38:42;101692.16;;;7.46;41.36
19210;BME280;9738;51.654;14.238;2023-04-04T10:41:10;101685.13;;;7.45;41.46
19210;BME280;9738;51.654;14.238;2023-04-04T10:43:44;101674.59;;;7.44;42.58
19210;BME280;9738;51.654;14.238;2023-04-04T10:46:14;101680.97;;;7.14;44.27
19210;BME280;9738;51.654;14.238;2023-04-04T10:48:41;101676.19;;;6.78;42.19
19210;BME280;9738;51.654;14.238;2023-04-04T10:51:10;101683.97;;;6.24;41.77
19210;BME280;9738;51.654;14.238;2023-04-04T10:53:37;101677.06;;;5.91;42.89
19210;BME280;9738;51.654;14.238;2023-04-04T10:56:04;101674.19;;;5.80;41.69
19210;BME280;9738;51.654;14.238;2023-04-04T10:58:30;101669.53;;;6.00;43.06
19210;BME280;9738;51.654;14.238;2023-04-04T11:00:56;101655.03;;;6.48;42.11
19210;BME280;9738;51.654;14.238;2023-04-04T11:03:22;101654.50;;;7.13;42.54
19210;BME280;9738;51.654;14.238;2023-04-04T11:05:50;101648.84;;;7.71;39.79
19210;BME280;9738;51.654;14.238;2023-04-04T11:08:25;101649.63;;;8.11;40.04
19210;BME280;9738;51.654;14.238;2023-04-04T11:10:53;101642.09;;;8.44;37.68
19210;BME280;9738;51.654;14.238;2023-04-04T11:16:06;101642.63;;;8.36;39.28
19210;BME280;9738;51.654;14.238;2023-04-04T11:21:15;101647.72;;;7.48;39.90
19210;BME280;9738;51.654;14.238;2023-04-04T11:26:12;101638.56;;;7.40;40.23
19210;BME280;9738;51.654;14.238;2023-04-04T11:28:42;101640.00;;;7.58;40.05
19210;BME280;9738;51.654;14.238;2023-04-04T11:33:59;101632.69;;;8.00;37.75
19210;BME280;9738;51.654;14.238;2023-04-04T11:44:25;101622.19;;;7.46;35.82
19210;BME280;9738;51.654;14.238;2023-04-04T11:47:16;101614.09;;;7.47;37.14
19210;BME280;9738;51.654;14.238;2023-04-04T11:49:44;101605.50;;;7.56;37.19
19210;BME280;9738;51.654;14.238;2023-04-04T11:52:14;101603.41;;;7.87;37.83
19210;BME280;9738;51.654;14.238;2023-04-04T11:54:42;101608.97;;;8.35;38.83
19210;BME280;9738;51.654;14.238;2023-04-04T11:57:15;101602.34;;;8.90;36.20
19210;BME280;9738;51.654;14.238;2023-04-04T11:59:44;101595.72;;;9.19;35.16
19210;BME280;9738;51.654;14.238;2023-04-04T12:02:13;101596.25;;;9.25;35.80
19210;BME280;9738;51.654;14.238;2023-04-04T12:04:40;101596.09;;;8.91;35.20
19210;BME280;9738;51.654;14.238;2023-04-04T12:07:11;101589.66;;;8.93;36.21
19210;BME280;9738;51.654;14.238;2023-04-04T12:09:38;101591.16;;;8.98;37.28
19210;BME280;9738;51.654;14.238;2023-04-04T12:12:05;101597.78;;;8.92;35.64
19210;BME280;9738;51.654;14.238;2023-04-04T12:14:33;101587.97;;;9.16;37.85
19210;BME280;9738;51.654;14.238;2023-04-04T12:16:59;101583.13;;;8.74;35.27
19210;BME280;9738;51.654;14.238;2023-04-04T12:19:27;101584.47;;;8.92;37.04
19210;BME280;9738;51.654;14.238;2023-04-04T12:21:56;101585.78;;;8.74;35.08
19210;BME280;9738;51.654;14.238;2023-04-04T12:24:22;101583.88;;;8.76;36.20
19210;BME280;9738;51.654;14.238;2023-04-04T12:26:50;101574.69;;;8.80;35.82
19210;BME280;9738;51.654;14.238;2023-04-04T12:29:19;101567.31;;;9.07;35.54
19210;BME280;9738;51.654;14.238;2023-04-04T12:31:46;101561.28;;;9.40;34.25
19210;BME280;9738;51.654;14.238;2023-04-04T12:34:17;101568.88;;;9.69;34.87
19210;BME280;9738;51.654;14.238;2023-04-04T12:36:47;101562.16;;;9.52;36.61
19210;BME280;9738;51.654;14.238;2023-04-04T12:39:15;101570.13;;;9.06;35.51
19210;BME280;9738;51.654;14.238;2023-04-04T12:41:58;101572.09;;;8.91;37.61
19210;BME280;9738;51.654;14.238;2023-04-04T12:44:34;101564.34;;;8.26;35.92
19210;BME280;9738;51.654;14.238;2023-04-04T12:47:03;101564.72;;;7.96;39.06
19210;BME280;9738;51.654;14.238;2023-04-04T12:52:15;101560.00;;;7.99;37.17
19210;BME280;9738;51.654;14.238;2023-04-04T12:54:42;101555.84;;;8.46;37.33
19210;BME280;9738;51.654;14.238;2023-04-04T12:57:08;101546.38;;;8.79;37.94
19210;BME280;9738;51.654;14.238;2023-04-04T12:59:36;101548.72;;;9.18;37.22
19210;BME280;9738;51.654;14.238;2023-04-04T13:02:13;101547.34;;;9.37;33.11
19210;BME280;9738;51.654;14.238;2023-04-04T13:04:44;101545.25;;;9.29;34.96
19210;BME280;9738;51.654;14.238;2023-04-04T13:07:26;101538.06;;;9.18;33.97
19210;BME280;9738;51.654;14.238;2023-04-04T13:10:00;101541.13;;;8.53;35.90
19210;BME280;9738;51.654;14.238;2023-04-04T13:12:54;101538.84;;;7.98;38.94
19210;BME280;9738;51.654;14.238;2023-04-04T13:15:21;101550.75;;;7.79;38.24
19210;BME280;9738;51.654;14.238;2023-04-04T13:17:49;101547.34;;;7.52;38.24